Nisku, Canada
Current Conditions -  °F | °C
As of 12:00 PM on Saturday 25 Oct 2014 (Local Time) from CYEG Reporting Station
Broken Clouds Broken Clouds  
Wind Chill:   Ceiling: 15000
Heat Index:   Visibility: 15mi
Dew Point: -3°   Wind: 13mph
Humidity: 53%   Direction: 120°ESE
Pressure: 29.91"   Gusts: NA
Location:  53.33°N, 113.53°W
Report Text: CYEG 251800Z 12011KT 15SM FEW110 BKN150 BKN210 06/M03 A2991 RMK AC2AC4CI1 SLP156
Loading
Personal Weather Stations






























Interactive Weather Map
Tropical Storm Tracking
New forecast layout! Learn more

10-Day Weather Forecast

Advertisements
Track Severe Weather on mobile